sensor_id;sensor_type;location;lat;lon;timestamp;temperature;humidity
30381;DHT22;17169;50.966;11.038;2023-07-31T00:02:35;18.60;96.50
30381;DHT22;17169;50.966;11.038;2023-07-31T00:05:37;18.60;96.40
30381;DHT22;17169;50.966;11.038;2023-07-31T00:08:39;18.70;96.40
30381;DHT22;17169;50.966;11.038;2023-07-31T00:11:42;18.60;96.30
30381;DHT22;17169;50.966;11.038;2023-07-31T00:14:46;18.70;96.40
30381;DHT22;17169;50.966;11.038;2023-07-31T00:17:48;18.60;96.50
30381;DHT22;17169;50.966;11.038;2023-07-31T00:20:50;18.60;96.60
30381;DHT22;17169;50.966;11.038;2023-07-31T00:23:53;18.60;96.80
30381;DHT22;17169;50.966;11.038;2023-07-31T00:26:55;18.60;97.30
30381;DHT22;17169;50.966;11.038;2023-07-31T00:29:59;18.50;97.50
30381;DHT22;17169;50.966;11.038;2023-07-31T00:33:01;18.50;97.90
30381;DHT22;17169;50.966;11.038;2023-07-31T00:36:03;18.50;98.20
30381;DHT22;17169;50.966;11.038;2023-07-31T00:39:06;18.40;98.40
30381;DHT22;17169;50.966;11.038;2023-07-31T00:42:08;18.30;98.80
30381;DHT22;17169;50.966;11.038;2023-07-31T00:45:12;18.30;98.90
30381;DHT22;17169;50.966;11.038;2023-07-31T00:48:14;18.30;99.10
30381;DHT22;17169;50.966;11.038;2023-07-31T00:51:17;18.30;99.20
30381;DHT22;17169;50.966;11.038;2023-07-31T00:54:19;18.20;99.30
30381;DHT22;17169;50.966;11.038;2023-07-31T00:57:21;18.10;99.50
30381;DHT22;17169;50.966;11.038;2023-07-31T01:00:25;18.10;99.80
30381;DHT22;17169;50.966;11.038;2023-07-31T01:03:28;18.10;99.80
30381;DHT22;17169;50.966;11.038;2023-07-31T01:06:36;18.10;99.90
30381;DHT22;17169;50.966;11.038;2023-07-31T01:09:44;18.00;99.90
30381;DHT22;17169;50.966;11.038;2023-07-31T01:12:48;18.00;99.90
30381;DHT22;17169;50.966;11.038;2023-07-31T01:15:52;18.00;99.90
30381;DHT22;17169;50.966;11.038;2023-07-31T01:18:54;18.00;99.90
30381;DHT22;17169;50.966;11.038;2023-07-31T01:22:12;18.00;99.90
30381;DHT22;17169;50.966;11.038;2023-07-31T01:25:30;18.00;99.90
30381;DHT22;17169;50.966;11.038;2023-07-31T01:28:44;18.00;99.90
30381;DHT22;17169;50.966;11.038;2023-07-31T01:31:50;18.00;99.90
30381;DHT22;17169;50.966;11.038;2023-07-31T01:34:55;18.00;99.90
30381;DHT22;17169;50.966;11.038;2023-07-31T01:37:58;18.00;99.90
30381;DHT22;17169;50.966;11.038;2023-07-31T01:41:00;18.00;99.90
30381;DHT22;17169;50.966;11.038;2023-07-31T01:44:05;18.00;99.90
30381;DHT22;17169;50.966;11.038;2023-07-31T01:47:08;18.00;99.90
30381;DHT22;17169;50.966;11.038;2023-07-31T01:50:10;18.00;99.90
30381;DHT22;17169;50.966;11.038;2023-07-31T01:53:12;17.90;99.90
30381;DHT22;17169;50.966;11.038;2023-07-31T01:56:15;17.90;99.90
30381;DHT22;17169;50.966;11.038;2023-07-31T01:59:19;17.90;99.90
30381;DHT22;17169;50.966;11.038;2023-07-31T02:02:22;17.80;99.90
30381;DHT22;17169;50.966;11.038;2023-07-31T02:05:25;17.80;99.90
30381;DHT22;17169;50.966;11.038;2023-07-31T02:08:27;17.80;99.90
30381;DHT22;17169;50.966;11.038;2023-07-31T02:11:30;17.70;99.90
30381;DHT22;17169;50.966;11.038;2023-07-31T02:14:33;17.70;99.90
30381;DHT22;17169;50.966;11.038;2023-07-31T02:17:36;17.60;99.90
30381;DHT22;17169;50.966;11.038;2023-07-31T02:20:38;17.60;99.90
30381;DHT22;17169;50.966;11.038;2023-07-31T02:23:40;17.60;99.90
30381;DHT22;17169;50.966;11.038;2023-07-31T02:26:42;17.50;99.90
30381;DHT22;17169;50.966;11.038;2023-07-31T02:29:46;17.50;99.90
30381;DHT22;17169;50.966;11.038;2023-07-31T02:32:49;17.30;99.90
30381;DHT22;17169;50.966;11.038;2023-07-31T02:35:51;17.30;99.90
30381;DHT22;17169;50.966;11.038;2023-07-31T02:38:53;17.20;99.90
30381;DHT22;17169;50.966;11.038;2023-07-31T02:41:56;17.20;99.90
30381;DHT22;17169;50.966;11.038;2023-07-31T02:45:00;17.10;99.90
30381;DHT22;17169;50.966;11.038;2023-07-31T02:48:02;17.10;99.90
30381;DHT22;17169;50.966;11.038;2023-07-31T02:51:05;17.10;99.90
30381;DHT22;17169;50.966;11.038;2023-07-31T02:54:07;17.00;99.90
30381;DHT22;17169;50.966;11.038;2023-07-31T02:57:09;17.00;99.90
30381;DHT22;17169;50.966;11.038;2023-07-31T03:00:13;17.00;99.90
30381;DHT22;17169;50.966;11.038;2023-07-31T03:03:16;16.90;99.90
30381;DHT22;17169;50.966;11.038;2023-07-31T03:06:18;16.90;99.90
30381;DHT22;17169;50.966;11.038;2023-07-31T03:09:20;16.90;99.90
30381;DHT22;17169;50.966;11.038;2023-07-31T03:12:23;16.90;99.90
30381;DHT22;17169;50.966;11.038;2023-07-31T03:15:26;16.90;99.90
30381;DHT22;17169;50.966;11.038;2023-07-31T03:18:29;16.80;99.90
30381;DHT22;17169;50.966;11.038;2023-07-31T03:21:31;16.80;99.90
30381;DHT22;17169;50.966;11.038;2023-07-31T03:24:34;16.80;99.90
30381;DHT22;17169;50.966;11.038;2023-07-31T03:27:36;16.80;99.90
30381;DHT22;17169;50.966;11.038;2023-07-31T03:30:40;16.80;99.90
30381;DHT22;17169;50.966;11.038;2023-07-31T03:33:42;16.80;99.90
30381;DHT22;17169;50.966;11.038;2023-07-31T03:36:44;16.70;99.90
30381;DHT22;17169;50.966;11.038;2023-07-31T03:39:47;16.70;99.90
30381;DHT22;17169;50.966;11.038;2023-07-31T03:42:49;16.80;99.90
30381;DHT22;17169;50.966;11.038;2023-07-31T03:45:53;16.80;99.90
30381;DHT22;17169;50.966;11.038;2023-07-31T03:48:55;16.80;99.90
30381;DHT22;17169;50.966;11.038;2023-07-31T03:51:58;16.80;99.90
30381;DHT22;17169;50.966;11.038;2023-07-31T03:55:00;16.80;99.90
30381;DHT22;17169;50.966;11.038;2023-07-31T03:58:03;16.80;99.90
30381;DHT22;17169;50.966;11.038;2023-07-31T04:01:06;16.70;99.90
30381;DHT22;17169;50.966;11.038;2023-07-31T04:04:09;16.70;99.90
30381;DHT22;17169;50.966;11.038;2023-07-31T04:07:11;16.80;99.90
30381;DHT22;17169;50.966;11.038;2023-07-31T04:10:13;16.80;99.90
30381;DHT22;17169;50.966;11.038;2023-07-31T04:13:16;16.80;99.90
30381;DHT22;17169;50.966;11.038;2023-07-31T04:16:19;16.80;99.90
30381;DHT22;17169;50.966;11.038;2023-07-31T04:19:22;16.70;99.90
30381;DHT22;17169;50.966;11.038;2023-07-31T04:22:24;16.70;99.90
30381;DHT22;17169;50.966;11.038;2023-07-31T04:25:26;16.80;99.90
30381;DHT22;17169;50.966;11.038;2023-07-31T04:28:29;16.80;99.90
30381;DHT22;17169;50.966;11.038;2023-07-31T04:31:34;16.90;99.90
30381;DHT22;17169;50.966;11.038;2023-07-31T04:34:36;16.90;99.90
30381;DHT22;17169;50.966;11.038;2023-07-31T04:37:38;16.90;99.90
30381;DHT22;17169;50.966;11.038;2023-07-31T04:40:41;17.00;99.90
30381;DHT22;17169;50.966;11.038;2023-07-31T04:43:43;17.00;99.90
30381;DHT22;17169;50.966;11.038;2023-07-31T04:46:47;17.00;99.90
30381;DHT22;17169;50.966;11.038;2023-07-31T04:49:49;17.10;99.90
30381;DHT22;17169;50.966;11.038;2023-07-31T04:52:51;17.10;99.90
30381;DHT22;17169;50.966;11.038;2023-07-31T04:55:54;17.10;99.90
30381;DHT22;17169;50.966;11.038;2023-07-31T04:58:56;17.20;99.90
30381;DHT22;17169;50.966;11.038;2023-07-31T05:02:00;17.30;99.90
30381;DHT22;17169;50.966;11.038;2023-07-31T05:05:02;17.30;99.90
30381;DHT22;17169;50.966;11.038;2023-07-31T05:08:07;17.40;99.90
30381;DHT22;17169;50.966;11.038;2023-07-31T05:11:09;17.50;99.90
30381;DHT22;17169;50.966;11.038;2023-07-31T05:14:12;17.50;99.90
30381;DHT22;17169;50.966;11.038;2023-07-31T05:17:16;17.60;99.90
30381;DHT22;17169;50.966;11.038;2023-07-31T05:20:18;17.70;99.90
30381;DHT22;17169;50.966;11.038;2023-07-31T05:23:20;17.70;99.90
30381;DHT22;17169;50.966;11.038;2023-07-31T05:26:23;17.70;99.90
30381;DHT22;17169;50.966;11.038;2023-07-31T05:29:25;17.70;99.90
30381;DHT22;17169;50.966;11.038;2023-07-31T05:32:29;17.70;99.90
30381;DHT22;17169;50.966;11.038;2023-07-31T05:35:31;17.80;99.90
30381;DHT22;17169;50.966;11.038;2023-07-31T05:38:33;17.80;99.90
30381;DHT22;17169;50.966;11.038;2023-07-31T05:41:36;17.80;99.90
30381;DHT22;17169;50.966;11.038;2023-07-31T05:44:38;17.80;99.90
30381;DHT22;17169;50.966;11.038;2023-07-31T05:47:42;17.80;99.90
30381;DHT22;17169;50.966;11.038;2023-07-31T05:50:44;17.90;99.90
30381;DHT22;17169;50.966;11.038;2023-07-31T05:53:47;17.90;99.90
30381;DHT22;17169;50.966;11.038;2023-07-31T05:56:49;17.90;99.90
30381;DHT22;17169;50.966;11.038;2023-07-31T05:59:51;17.90;99.90
30381;DHT22;17169;50.966;11.038;2023-07-31T06:02:55;18.00;99.90
30381;DHT22;17169;50.966;11.038;2023-07-31T06:05:58;18.00;99.90
30381;DHT22;17169;50.966;11.038;2023-07-31T06:09:00;18.00;99.90
30381;DHT22;17169;50.966;11.038;2023-07-31T06:12:05;18.10;99.90
30381;DHT22;17169;50.966;11.038;2023-07-31T06:15:07;18.10;99.90
30381;DHT22;17169;50.966;11.038;2023-07-31T06:18:12;18.10;99.90
30381;DHT22;17169;50.966;11.038;2023-07-31T06:21:14;18.10;99.90
30381;DHT22;17169;50.966;11.038;2023-07-31T06:24:16;18.10;99.90
30381;DHT22;17169;50.966;11.038;2023-07-31T06:27:21;18.10;99.90
30381;DHT22;17169;50.966;11.038;2023-07-31T06:30:24;18.10;99.90
30381;DHT22;17169;50.966;11.038;2023-07-31T06:33:27;18.00;99.90
30381;DHT22;17169;50.966;11.038;2023-07-31T06:36:30;18.10;99.90
30381;DHT22;17169;50.966;11.038;2023-07-31T06:39:32;18.20;99.90
30381;DHT22;17169;50.966;11.038;2023-07-31T06:42:34;18.10;99.90
30381;DHT22;17169;50.966;11.038;2023-07-31T06:45:37;18.20;99.90
30381;DHT22;17169;50.966;11.038;2023-07-31T06:48:41;18.30;99.90
30381;DHT22;17169;50.966;11.038;2023-07-31T06:51:43;18.30;99.90
30381;DHT22;17169;50.966;11.038;2023-07-31T06:55:00;18.30;99.90
30381;DHT22;17169;50.966;11.038;2023-07-31T06:58:03;18.30;99.90
30381;DHT22;17169;50.966;11.038;2023-07-31T07:01:05;18.30;99.90
30381;DHT22;17169;50.966;11.038;2023-07-31T07:04:09;18.30;99.90
30381;DHT22;17169;50.966;11.038;2023-07-31T07:07:11;18.40;99.90
30381;DHT22;17169;50.966;11.038;2023-07-31T07:10:14;18.40;99.90
30381;DHT22;17169;50.966;11.038;2023-07-31T07:13:17;18.50;99.90
30381;DHT22;17169;50.966;11.038;2023-07-31T07:16:19;18.50;99.90
30381;DHT22;17169;50.966;11.038;2023-07-31T07:19:23;18.60;99.90
30381;DHT22;17169;50.966;11.038;2023-07-31T07:22:26;18.60;99.90
30381;DHT22;17169;50.966;11.038;2023-07-31T07:25:29;18.60;99.90
30381;DHT22;17169;50.966;11.038;2023-07-31T07:28:31;18.60;99.90
30381;DHT22;17169;50.966;11.038;2023-07-31T07:31:33;18.70;99.90
30381;DHT22;17169;50.966;11.038;2023-07-31T07:34:38;18.80;99.90
30381;DHT22;17169;50.966;11.038;2023-07-31T07:37:41;18.80;99.90
30381;DHT22;17169;50.966;11.038;2023-07-31T07:40:43;18.80;99.90
30381;DHT22;17169;50.966;11.038;2023-07-31T07:43:47;18.90;99.90
30381;DHT22;17169;50.966;11.038;2023-07-31T07:46:50;18.90;99.90
30381;DHT22;17169;50.966;11.038;2023-07-31T07:49:53;19.00;99.90
30381;DHT22;17169;50.966;11.038;2023-07-31T07:52:56;19.10;99.90
30381;DHT22;17169;50.966;11.038;2023-07-31T07:55:58;19.10;99.90
30381;DHT22;17169;50.966;11.038;2023-07-31T07:59:00;19.20;99.90
30381;DHT22;17169;50.966;11.038;2023-07-31T08:02:03;19.30;99.90
30381;DHT22;17169;50.966;11.038;2023-07-31T08:05:07;19.50;99.90
30381;DHT22;17169;50.966;11.038;2023-07-31T08:08:14;19.50;99.90
30381;DHT22;17169;50.966;11.038;2023-07-31T08:11:16;19.60;99.90
30381;DHT22;17169;50.966;11.038;2023-07-31T08:14:19;19.80;99.90
30381;DHT22;17169;50.966;11.038;2023-07-31T08:17:21;19.90;99.90
30381;DHT22;17169;50.966;11.038;2023-07-31T08:20:26;19.80;99.90
30381;DHT22;17169;50.966;11.038;2023-07-31T08:23:29;19.90;99.90
30381;DHT22;17169;50.966;11.038;2023-07-31T08:26:31;19.90;99.90
30381;DHT22;17169;50.966;11.038;2023-07-31T08:29:33;19.90;99.90
30381;DHT22;17169;50.966;11.038;2023-07-31T08:32:36;19.90;99.90
30381;DHT22;17169;50.966;11.038;2023-07-31T08:35:39;19.90;99.90
30381;DHT22;17169;50.966;11.038;2023-07-31T08:38:42;19.80;99.90
30381;DHT22;17169;50.966;11.038;2023-07-31T08:41:44;19.80;99.90
30381;DHT22;17169;50.966;11.038;2023-07-31T08:44:46;19.80;99.90
30381;DHT22;17169;50.966;11.038;2023-07-31T08:47:50;19.80;99.90
30381;DHT22;17169;50.966;11.038;2023-07-31T08:50:54;19.90;99.90
30381;DHT22;17169;50.966;11.038;2023-07-31T08:53:57;20.00;99.90
30381;DHT22;17169;50.966;11.038;2023-07-31T08:57:00;20.10;99.90
30381;DHT22;17169;50.966;11.038;2023-07-31T09:00:04;20.20;99.90
30381;DHT22;17169;50.966;11.038;2023-07-31T09:03:09;20.30;99.90
30381;DHT22;17169;50.966;11.038;2023-07-31T09:06:18;20.50;99.90
30381;DHT22;17169;50.966;11.038;2023-07-31T09:09:21;20.70;99.90
30381;DHT22;17169;50.966;11.038;2023-07-31T09:12:25;20.80;99.90
30381;DHT22;17169;50.966;11.038;2023-07-31T09:15:27;21.00;99.90
30381;DHT22;17169;50.966;11.038;2023-07-31T09:18:30;21.10;99.90
30381;DHT22;17169;50.966;11.038;2023-07-31T09:21:45;21.40;99.90
30381;DHT22;17169;50.966;11.038;2023-07-31T09:24:49;21.50;99.90
30381;DHT22;17169;50.966;11.038;2023-07-31T09:27:54;21.70;99.90
30381;DHT22;17169;50.966;11.038;2023-07-31T09:30:56;21.80;99.90
30381;DHT22;17169;50.966;11.038;2023-07-31T09:33:59;21.70;99.90
30381;DHT22;17169;50.966;11.038;2023-07-31T09:37:03;21.80;99.90
30381;DHT22;17169;50.966;11.038;2023-07-31T09:40:06;21.80;99.90
30381;DHT22;17169;50.966;11.038;2023-07-31T09:43:12;21.70;99.90
30381;DHT22;17169;50.966;11.038;2023-07-31T09:46:14;21.60;99.90
30381;DHT22;17169;50.966;11.038;2023-07-31T09:49:16;21.50;99.90
30381;DHT22;17169;50.966;11.038;2023-07-31T09:52:20;21.50;99.90
30381;DHT22;17169;50.966;11.038;2023-07-31T09:55:24;21.60;99.90
30381;DHT22;17169;50.966;11.038;2023-07-31T09:58:28;21.70;99.90
30381;DHT22;17169;50.966;11.038;2023-07-31T10:01:32;21.60;99.90
30381;DHT22;17169;50.966;11.038;2023-07-31T10:04:34;21.60;99.90
30381;DHT22;17169;50.966;11.038;2023-07-31T10:07:38;21.60;99.90
30381;DHT22;17169;50.966;11.038;2023-07-31T10:10:42;21.50;99.90
30381;DHT22;17169;50.966;11.038;2023-07-31T10:13:45;21.60;99.90
30381;DHT22;17169;50.966;11.038;2023-07-31T10:16:49;21.70;99.90
30381;DHT22;17169;50.966;11.038;2023-07-31T10:19:53;21.80;99.90
30381;DHT22;17169;50.966;11.038;2023-07-31T10:22:57;21.90;99.90
30381;DHT22;17169;50.966;11.038;2023-07-31T10:26:01;22.10;99.90
30381;DHT22;17169;50.966;11.038;2023-07-31T10:29:05;22.30;99.90
30381;DHT22;17169;50.966;11.038;2023-07-31T10:32:09;22.40;99.80
30381;DHT22;17169;50.966;11.038;2023-07-31T10:35:13;22.40;99.60
30381;DHT22;17169;50.966;11.038;2023-07-31T10:38:18;22.60;99.50
30381;DHT22;17169;50.966;11.038;2023-07-31T10:41:28;22.70;99.30
30381;DHT22;17169;50.966;11.038;2023-07-31T10:44:30;22.60;99.00
30381;DHT22;17169;50.966;11.038;2023-07-31T10:47:37;22.60;99.10
30381;DHT22;17169;50.966;11.038;2023-07-31T10:50:47;22.60;99.40
30381;DHT22;17169;50.966;11.038;2023-07-31T10:54:10;22.50;98.90
30381;DHT22;17169;50.966;11.038;2023-07-31T10:57:20;22.40;99.20
30381;DHT22;17169;50.966;11.038;2023-07-31T11:00:26;22.30;99.30
30381;DHT22;17169;50.966;11.038;2023-07-31T11:03:41;22.30;99.40
30381;DHT22;17169;50.966;11.038;2023-07-31T11:06:55;22.30;99.50
30381;DHT22;17169;50.966;11.038;2023-07-31T11:10:00;22.10;99.80
30381;DHT22;17169;50.966;11.038;2023-07-31T11:13:04;22.00;99.90
30381;DHT22;17169;50.966;11.038;2023-07-31T11:16:06;22.00;99.90
30381;DHT22;17169;50.966;11.038;2023-07-31T11:19:09;21.90;99.90
30381;DHT22;17169;50.966;11.038;2023-07-31T11:22:11;21.90;99.90
30381;DHT22;17169;50.966;11.038;2023-07-31T11:25:16;22.00;99.90
30381;DHT22;17169;50.966;11.038;2023-07-31T11:28:20;22.10;99.90
30381;DHT22;17169;50.966;11.038;2023-07-31T11:31:22;22.40;99.90
30381;DHT22;17169;50.966;11.038;2023-07-31T11:34:25;22.50;99.90
30381;DHT22;17169;50.966;11.038;2023-07-31T11:37:39;22.50;99.90
30381;DHT22;17169;50.966;11.038;2023-07-31T11:40:43;22.40;99.90
30381;DHT22;17169;50.966;11.038;2023-07-31T11:43:46;22.40;99.90
30381;DHT22;17169;50.966;11.038;2023-07-31T11:46:50;22.50;99.90
30381;DHT22;17169;50.966;11.038;2023-07-31T11:49:53;22.60;99.80
30381;DHT22;17169;50.966;11.038;2023-07-31T11:53:00;22.60;99.70
30381;DHT22;17169;50.966;11.038;2023-07-31T11:56:04;22.50;99.80
30381;DHT22;17169;50.966;11.038;2023-07-31T11:59:08;22.60;99.70
30381;DHT22;17169;50.966;11.038;2023-07-31T12:02:10;22.50;99.40
30381;DHT22;17169;50.966;11.038;2023-07-31T12:05:13;22.50;99.60
30381;DHT22;17169;50.966;11.038;2023-07-31T12:08:16;22.50;99.60
30381;DHT22;17169;50.966;11.038;2023-07-31T12:11:19;22.50;99.50
30381;DHT22;17169;50.966;11.038;2023-07-31T12:14:24;22.60;99.40
30381;DHT22;17169;50.966;11.038;2023-07-31T12:17:26;22.70;99.30
30381;DHT22;17169;50.966;11.038;2023-07-31T12:20:30;23.00;99.30
30381;DHT22;17169;50.966;11.038;2023-07-31T12:23:33;23.70;99.70
30381;DHT22;17169;50.966;11.038;2023-07-31T12:26:37;24.20;97.90
30381;DHT22;17169;50.966;11.038;2023-07-31T12:29:40;24.70;98.20
30381;DHT22;17169;50.966;11.038;2023-07-31T12:32:44;24.80;96.80
30381;DHT22;17169;50.966;11.038;2023-07-31T12:35:47;24.70;96.30
30381;DHT22;17169;50.966;11.038;2023-07-31T12:38:50;24.70;95.90
30381;DHT22;17169;50.966;11.038;2023-07-31T12:41:53;24.30;95.90
30381;DHT22;17169;50.966;11.038;2023-07-31T12:44:56;24.50;96.30
30381;DHT22;17169;50.966;11.038;2023-07-31T12:47:59;24.60;95.50
30381;DHT22;17169;50.966;11.038;2023-07-31T12:51:02;24.30;95.40
30381;DHT22;17169;50.966;11.038;2023-07-31T12:54:04;24.20;95.70
30381;DHT22;17169;50.966;11.038;2023-07-31T12:57:08;24.20;96.00
30381;DHT22;17169;50.966;11.038;2023-07-31T13:00:12;24.50;95.50
30381;DHT22;17169;50.966;11.038;2023-07-31T13:03:15;24.30;95.10
30381;DHT22;17169;50.966;11.038;2023-07-31T13:06:17;24.50;95.40
30381;DHT22;17169;50.966;11.038;2023-07-31T13:09:19;24.70;95.20
30381;DHT22;17169;50.966;11.038;2023-07-31T13:12:23;24.80;95.10
30381;DHT22;17169;50.966;11.038;2023-07-31T13:15:25;24.90;94.50
30381;DHT22;17169;50.966;11.038;2023-07-31T13:18:28;24.90;94.50
30381;DHT22;17169;50.966;11.038;2023-07-31T13:21:30;24.80;94.80
30381;DHT22;17169;50.966;11.038;2023-07-31T13:24:33;24.80;94.60
30381;DHT22;17169;50.966;11.038;2023-07-31T13:27:36;24.90;94.70
30381;DHT22;17169;50.966;11.038;2023-07-31T13:30:39;24.70;94.50
30381;DHT22;17169;50.966;11.038;2023-07-31T13:33:41;24.40;94.80
30381;DHT22;17169;50.966;11.038;2023-07-31T13:36:43;24.20;94.80
30381;DHT22;17169;50.966;11.038;2023-07-31T13:39:46;24.50;94.90
30381;DHT22;17169;50.966;11.038;2023-07-31T13:42:49;25.50;94.30
30381;DHT22;17169;50.966;11.038;2023-07-31T13:45:52;26.40;93.40
30381;DHT22;17169;50.966;11.038;2023-07-31T13:48:54;26.70;92.80
30381;DHT22;17169;50.966;11.038;2023-07-31T13:51:57;26.50;92.50
30381;DHT22;17169;50.966;11.038;2023-07-31T13:54:59;26.20;93.20
30381;DHT22;17169;50.966;11.038;2023-07-31T13:58:03;25.80;93.10
30381;DHT22;17169;50.966;11.038;2023-07-31T14:01:05;25.30;93.90
30381;DHT22;17169;50.966;11.038;2023-07-31T14:04:08;25.00;94.30
30381;DHT22;17169;50.966;11.038;2023-07-31T14:07:10;24.90;94.60
30381;DHT22;17169;50.966;11.038;2023-07-31T14:10:13;24.80;94.70
30381;DHT22;17169;50.966;11.038;2023-07-31T14:13:16;24.50;94.80
30381;DHT22;17169;50.966;11.038;2023-07-31T14:16:19;24.30;94.90
30381;DHT22;17169;50.966;11.038;2023-07-31T14:19:21;24.40;95.10
30381;DHT22;17169;50.966;11.038;2023-07-31T14:22:28;24.20;95.20
30381;DHT22;17169;50.966;11.038;2023-07-31T14:25:31;24.10;95.40
30381;DHT22;17169;50.966;11.038;2023-07-31T14:28:34;23.80;95.70
30381;DHT22;17169;50.966;11.038;2023-07-31T14:31:37;23.80;96.00
30381;DHT22;17169;50.966;11.038;2023-07-31T14:34:39;23.50;96.30
30381;DHT22;17169;50.966;11.038;2023-07-31T14:37:43;23.30;96.40
30381;DHT22;17169;50.966;11.038;2023-07-31T14:40:45;23.20;96.90
30381;DHT22;17169;50.966;11.038;2023-07-31T14:43:49;23.10;97.20
30381;DHT22;17169;50.966;11.038;2023-07-31T14:46:52;23.10;97.10
30381;DHT22;17169;50.966;11.038;2023-07-31T14:49:54;23.10;97.10
30381;DHT22;17169;50.966;11.038;2023-07-31T14:52:56;23.00;97.10
30381;DHT22;17169;50.966;11.038;2023-07-31T14:55:59;22.90;97.40
30381;DHT22;17169;50.966;11.038;2023-07-31T14:59:03;22.80;97.60
30381;DHT22;17169;50.966;11.038;2023-07-31T15:02:06;22.80;97.80
30381;DHT22;17169;50.966;11.038;2023-07-31T15:05:08;22.70;97.80
30381;DHT22;17169;50.966;11.038;2023-07-31T15:08:11;22.70;98.00
30381;DHT22;17169;50.966;11.038;2023-07-31T15:11:14;22.70;98.10
30381;DHT22;17169;50.966;11.038;2023-07-31T15:14:21;22.90;98.00
30381;DHT22;17169;50.966;11.038;2023-07-31T15:17:24;23.10;97.90
30381;DHT22;17169;50.966;11.038;2023-07-31T15:20:26;23.10;97.60
30381;DHT22;17169;50.966;11.038;2023-07-31T15:23:28;23.20;97.60
30381;DHT22;17169;50.966;11.038;2023-07-31T15:26:31;23.20;97.60
30381;DHT22;17169;50.966;11.038;2023-07-31T15:29:34;23.00;97.30
30381;DHT22;17169;50.966;11.038;2023-07-31T15:32:38;22.90;97.60
30381;DHT22;17169;50.966;11.038;2023-07-31T15:35:40;22.90;97.80
30381;DHT22;17169;50.966;11.038;2023-07-31T15:38:44;22.90;97.70
30381;DHT22;17169;50.966;11.038;2023-07-31T15:41:47;22.70;97.90
30381;DHT22;17169;50.966;11.038;2023-07-31T15:44:50;22.70;98.10
30381;DHT22;17169;50.966;11.038;2023-07-31T15:47:53;22.60;98.10
30381;DHT22;17169;50.966;11.038;2023-07-31T15:50:55;22.50;97.90
30381;DHT22;17169;50.966;11.038;2023-07-31T15:53:58;22.60;98.20
30381;DHT22;17169;50.966;11.038;2023-07-31T15:57:00;22.60;98.10
30381;DHT22;17169;50.966;11.038;2023-07-31T16:00:05;22.60;98.20
30381;DHT22;17169;50.966;11.038;2023-07-31T16:03:08;22.60;98.20
30381;DHT22;17169;50.966;11.038;2023-07-31T16:06:10;22.50;98.20
30381;DHT22;17169;50.966;11.038;2023-07-31T16:09:12;22.40;98.30
30381;DHT22;17169;50.966;11.038;2023-07-31T16:12:15;22.40;98.50
30381;DHT22;17169;50.966;11.038;2023-07-31T16:15:18;22.40;98.50
30381;DHT22;17169;50.966;11.038;2023-07-31T16:18:21;22.40;98.30
30381;DHT22;17169;50.966;11.038;2023-07-31T16:21:23;22.50;98.40
30381;DHT22;17169;50.966;11.038;2023-07-31T16:24:26;22.50;98.30
30381;DHT22;17169;50.966;11.038;2023-07-31T16:27:28;22.60;98.20
30381;DHT22;17169;50.966;11.038;2023-07-31T16:30:32;22.50;98.20
30381;DHT22;17169;50.966;11.038;2023-07-31T16:33:34;22.50;98.20
30381;DHT22;17169;50.966;11.038;2023-07-31T16:36:36;22.50;98.30
30381;DHT22;17169;50.966;11.038;2023-07-31T16:39:39;22.50;98.40
30381;DHT22;17169;50.966;11.038;2023-07-31T16:42:44;22.50;98.40
30381;DHT22;17169;50.966;11.038;2023-07-31T16:45:47;22.50;98.40
30381;DHT22;17169;50.966;11.038;2023-07-31T16:48:50;22.50;98.40
30381;DHT22;17169;50.966;11.038;2023-07-31T16:51:53;22.50;98.30
30381;DHT22;17169;50.966;11.038;2023-07-31T16:54:55;22.50;98.50
30381;DHT22;17169;50.966;11.038;2023-07-31T16:57:58;22.60;98.30
30381;DHT22;17169;50.966;11.038;2023-07-31T17:01:02;22.60;98.30
30381;DHT22;17169;50.966;11.038;2023-07-31T17:04:05;22.50;98.40
30381;DHT22;17169;50.966;11.038;2023-07-31T17:07:07;22.50;98.30
30381;DHT22;17169;50.966;11.038;2023-07-31T17:10:10;22.40;98.40
30381;DHT22;17169;50.966;11.038;2023-07-31T17:13:12;22.40;98.40
30381;DHT22;17169;50.966;11.038;2023-07-31T17:16:16;22.30;98.30
30381;DHT22;17169;50.966;11.038;2023-07-31T17:19:19;22.30;98.40
30381;DHT22;17169;50.966;11.038;2023-07-31T17:22:21;22.20;98.30
30381;DHT22;17169;50.966;11.038;2023-07-31T17:25:24;22.10;98.40
30381;DHT22;17169;50.966;11.038;2023-07-31T17:28:26;22.10;98.50
30381;DHT22;17169;50.966;11.038;2023-07-31T17:31:30;22.10;98.50
30381;DHT22;17169;50.966;11.038;2023-07-31T17:34:32;22.10;98.50
30381;DHT22;17169;50.966;11.038;2023-07-31T17:37:35;22.10;98.60
30381;DHT22;17169;50.966;11.038;2023-07-31T17:40:37;22.10;98.70
30381;DHT22;17169;50.966;11.038;2023-07-31T17:43:40;22.10;98.60
30381;DHT22;17169;50.966;11.038;2023-07-31T17:46:43;22.00;98.60
30381;DHT22;17169;50.966;11.038;2023-07-31T17:49:46;22.00;98.70
30381;DHT22;17169;50.966;11.038;2023-07-31T17:52:48;22.00;98.80
30381;DHT22;17169;50.966;11.038;2023-07-31T17:55:50;22.00;98.80
30381;DHT22;17169;50.966;11.038;2023-07-31T17:58:53;21.90;98.90
30381;DHT22;17169;50.966;11.038;2023-07-31T18:01:56;21.80;98.90
30381;DHT22;17169;50.966;11.038;2023-07-31T18:04:59;21.80;99.00
30381;DHT22;17169;50.966;11.038;2023-07-31T18:08:01;21.80;99.00
30381;DHT22;17169;50.966;11.038;2023-07-31T18:11:04;21.80;99.10
30381;DHT22;17169;50.966;11.038;2023-07-31T18:14:06;21.70;99.10
30381;DHT22;17169;50.966;11.038;2023-07-31T18:17:10;21.70;99.20
30381;DHT22;17169;50.966;11.038;2023-07-31T18:20:12;21.60;99.20
30381;DHT22;17169;50.966;11.038;2023-07-31T18:23:15;21.60;99.20
30381;DHT22;17169;50.966;11.038;2023-07-31T18:26:17;21.60;99.40
30381;DHT22;17169;50.966;11.038;2023-07-31T18:29:19;21.60;99.30
30381;DHT22;17169;50.966;11.038;2023-07-31T18:32:23;21.50;99.30
30381;DHT22;17169;50.966;11.038;2023-07-31T18:35:26;21.40;99.40
30381;DHT22;17169;50.966;11.038;2023-07-31T18:38:28;21.50;99.50
30381;DHT22;17169;50.966;11.038;2023-07-31T18:41:33;21.40;99.50
30381;DHT22;17169;50.966;11.038;2023-07-31T18:44:35;21.40;99.60
30381;DHT22;17169;50.966;11.038;2023-07-31T18:47:39;21.40;99.50
30381;DHT22;17169;50.966;11.038;2023-07-31T18:50:41;21.40;99.60
30381;DHT22;17169;50.966;11.038;2023-07-31T18:53:44;21.40;99.60
30381;DHT22;17169;50.966;11.038;2023-07-31T18:56:46;21.30;99.70
30381;DHT22;17169;50.966;11.038;2023-07-31T18:59:49;21.40;99.70